createdAt,value
2018-04-01T00:00:32.186Z,977.66
2018-04-01T00:01:32.360Z,977.65
2018-04-01T00:02:32.540Z,977.63
2018-04-01T00:03:32.719Z,977.67
2018-04-01T00:04:32.897Z,977.67
2018-04-01T00:05:33.087Z,977.68
2018-04-01T00:06:33.284Z,977.71
2018-04-01T00:07:33.476Z,977.74
2018-04-01T00:08:33.662Z,977.75
2018-04-01T00:09:33.860Z,977.79
2018-04-01T00:10:36.212Z,977.79
2018-04-01T00:11:34.194Z,977.82
2018-04-01T00:12:34.367Z,977.81
2018-04-01T00:13:34.546Z,977.85
2018-04-01T00:14:34.727Z,977.83
2018-04-01T00:15:34.922Z,977.84
2018-04-01T00:16:35.114Z,977.86
2018-04-01T00:17:35.290Z,977.87
2018-04-01T00:18:35.467Z,977.91
2018-04-01T00:19:35.655Z,977.95
2018-04-01T00:20:35.827Z,977.93
2018-04-01T00:21:36.013Z,977.94
2018-04-01T00:22:36.192Z,977.97
2018-04-01T00:23:36.371Z,977.98
2018-04-01T00:24:36.542Z,977.98
2018-04-01T00:25:36.724Z,977.95
2018-04-01T00:26:36.908Z,977.94
2018-04-01T00:27:37.088Z,977.95
2018-04-01T00:28:37.255Z,977.94
2018-04-01T00:29:37.435Z,978.00
2018-04-01T00:30:37.630Z,977.97
2018-04-01T00:31:37.810Z,977.95
2018-04-01T00:32:37.989Z,977.92
2018-04-01T00:33:38.169Z,977.95
2018-04-01T00:34:38.351Z,977.92
2018-04-01T00:35:38.527Z,977.90
2018-04-01T00:36:38.704Z,977.94
2018-04-01T00:37:38.882Z,977.96
2018-04-01T00:38:39.059Z,977.94
2018-04-01T00:39:39.240Z,977.98
2018-04-01T00:40:39.416Z,978.02
2018-04-01T00:41:39.594Z,978.04
2018-04-01T00:42:39.784Z,978.07
2018-04-01T00:43:39.971Z,978.09
2018-04-01T00:44:40.150Z,978.10
2018-04-01T00:45:40.333Z,978.14
2018-04-01T00:46:40.512Z,978.16
2018-04-01T00:47:40.727Z,978.16
2018-04-01T00:48:44.599Z,978.17
2018-04-01T00:49:41.054Z,978.18
2018-04-01T00:50:41.221Z,978.18
2018-04-01T00:51:42.782Z,978.24
2018-04-01T00:52:43.099Z,978.25
2018-04-01T00:53:44.181Z,978.19
2018-04-01T00:54:41.927Z,978.20
2018-04-01T00:55:42.036Z,978.19
2018-04-01T00:56:42.208Z,978.20
2018-04-01T00:57:42.381Z,978.23
2018-04-01T00:58:42.561Z,978.26
2018-04-01T00:59:42.740Z,978.26
2018-04-01T01:00:42.921Z,978.25
2018-04-01T01:01:43.102Z,978.24
2018-04-01T01:02:43.278Z,978.30
2018-04-01T01:03:43.457Z,978.29
2018-04-01T01:04:43.630Z,978.29
2018-04-01T01:05:43.815Z,978.28
2018-04-01T01:06:43.998Z,978.26
2018-04-01T01:07:44.166Z,978.30
2018-04-01T01:08:44.345Z,978.32
2018-04-01T01:09:44.526Z,978.29
2018-04-01T01:10:44.709Z,978.30
2018-04-01T01:11:44.892Z,978.29
2018-04-01T01:12:45.073Z,978.27
2018-04-01T01:13:45.255Z,978.30
2018-04-01T01:14:45.426Z,978.29
2018-04-01T01:15:45.596Z,978.26
2018-04-01T01:16:45.775Z,978.27
2018-04-01T01:17:45.952Z,978.31
2018-04-01T01:18:46.137Z,978.32
2018-04-01T01:19:46.308Z,978.29
2018-04-01T01:20:46.489Z,978.28
2018-04-01T01:21:46.668Z,978.32
2018-04-01T01:22:46.848Z,978.27
2018-04-01T01:23:47.021Z,978.29
2018-04-01T01:24:47.196Z,978.25
2018-04-01T01:25:47.374Z,978.22
2018-04-01T01:26:47.556Z,978.20
2018-04-01T01:27:47.734Z,978.18
2018-04-01T01:28:47.914Z,978.17
2018-04-01T01:29:48.092Z,978.21
2018-04-01T01:30:48.266Z,978.21
2018-04-01T01:31:48.439Z,978.21
2018-04-01T01:32:48.624Z,978.21
2018-04-01T01:33:48.799Z,978.22
2018-04-01T01:34:48.979Z,978.22
2018-04-01T01:35:49.154Z,978.19
2018-04-01T01:36:49.337Z,978.18
2018-04-01T01:37:49.512Z,978.18
2018-04-01T01:38:49.686Z,978.19
2018-04-01T01:39:49.865Z,978.17
2018-04-01T01:40:50.038Z,978.14
2018-04-01T01:41:50.221Z,978.14
2018-04-01T01:42:50.395Z,978.12
2018-04-01T01:43:50.576Z,978.15
2018-04-01T01:44:50.747Z,978.09
2018-04-01T01:45:50.922Z,978.11
2018-04-01T01:46:51.099Z,978.14
2018-04-01T01:47:51.271Z,978.18
2018-04-01T01:48:51.448Z,978.19
2018-04-01T01:49:51.628Z,978.17
2018-04-01T01:50:51.805Z,978.17
2018-04-01T01:51:51.979Z,978.15
2018-04-01T01:52:52.155Z,978.17
2018-04-01T01:53:52.335Z,978.12
2018-04-01T01:54:52.510Z,978.09
2018-04-01T01:55:52.690Z,978.00
2018-04-01T01:56:52.876Z,977.97
2018-04-01T01:57:53.051Z,977.96
2018-04-01T01:58:53.233Z,978.00
2018-04-01T01:59:53.405Z,978.03
2018-04-01T02:00:53.588Z,977.99
2018-04-01T02:01:53.762Z,978.08
2018-04-01T02:02:53.946Z,978.03
2018-04-01T02:03:54.121Z,978.03
2018-04-01T02:04:54.300Z,978.05
2018-04-01T02:05:54.481Z,978.03
2018-04-01T02:06:54.658Z,978.03
2018-04-01T02:07:54.835Z,978.03
2018-04-01T02:08:55.023Z,978.05
2018-04-01T02:09:55.206Z,978.03
2018-04-01T02:10:55.373Z,978.06
2018-04-01T02:11:55.554Z,978.02
2018-04-01T02:12:55.740Z,978.00
2018-04-01T02:13:55.915Z,977.96
2018-04-01T02:14:56.102Z,977.94
2018-04-01T02:15:56.269Z,977.88
2018-04-01T02:16:56.453Z,977.89
2018-04-01T02:17:56.622Z,977.93
2018-04-01T02:18:56.806Z,977.88
2018-04-01T02:19:56.976Z,977.90
2018-04-01T02:20:57.157Z,977.90
2018-04-01T02:21:57.341Z,977.90
2018-04-01T02:22:57.516Z,977.91
2018-04-01T02:23:57.697Z,977.94
2018-04-01T02:24:57.879Z,977.99
2018-04-01T02:25:58.054Z,978.02
2018-04-01T02:26:58.233Z,978.02
2018-04-01T02:27:58.417Z,977.99
2018-04-01T02:28:58.604Z,977.99
2018-04-01T02:29:59.023Z,978.05
2018-04-01T02:30:59.246Z,978.03
2018-04-01T02:31:59.336Z,978.04
2018-04-01T02:32:59.308Z,978.02
2018-04-01T02:33:59.776Z,977.99
2018-04-01T02:34:59.721Z,978.01
2018-04-01T02:35:59.763Z,977.98
2018-04-01T02:36:59.944Z,978.01
2018-04-01T02:38:00.126Z,978.01
2018-04-01T02:39:00.310Z,977.98
2018-04-01T02:40:00.496Z,978.01
2018-04-01T02:41:00.680Z,978.01
2018-04-01T02:42:00.853Z,978.04
2018-04-01T02:43:01.034Z,978.03
2018-04-01T02:44:01.214Z,978.04
2018-04-01T02:45:01.395Z,978.07
2018-04-01T02:46:01.572Z,978.06
2018-04-01T02:47:01.760Z,978.11
2018-04-01T02:48:01.936Z,978.09
2018-04-01T02:49:02.120Z,978.05
2018-04-01T02:50:02.296Z,978.06
2018-04-01T02:51:02.476Z,978.08
2018-04-01T02:52:02.658Z,978.09
2018-04-01T02:53:02.839Z,978.10
2018-04-01T02:54:03.015Z,978.13
2018-04-01T02:55:03.194Z,978.09
2018-04-01T02:56:03.373Z,978.08
2018-04-01T02:57:03.553Z,978.12
2018-04-01T02:58:03.728Z,978.11
2018-04-01T02:59:03.900Z,978.12
2018-04-01T03:00:04.068Z,978.17
2018-04-01T03:01:04.249Z,978.12
2018-04-01T03:02:04.432Z,978.14
2018-04-01T03:03:04.611Z,978.18
2018-04-01T03:04:04.784Z,978.19
2018-04-01T03:05:04.969Z,978.21
2018-04-01T03:06:05.145Z,978.27
2018-04-01T03:07:05.322Z,978.28
2018-04-01T03:08:05.502Z,978.31
2018-04-01T03:09:05.703Z,978.33
2018-04-01T03:10:05.869Z,978.35
2018-04-01T03:11:06.092Z,978.35
2018-04-01T03:12:06.232Z,978.34
2018-04-01T03:13:06.421Z,978.40
2018-04-01T03:14:06.596Z,978.40
2018-04-01T03:15:06.782Z,978.42
2018-04-01T03:16:06.953Z,978.43
2018-04-01T03:17:07.134Z,978.47
2018-04-01T03:18:07.311Z,978.48
2018-04-01T03:19:07.495Z,978.41
2018-04-01T03:20:07.674Z,978.39
2018-04-01T03:21:07.853Z,978.45
2018-04-01T03:22:08.036Z,978.46
2018-04-01T03:23:08.209Z,978.45
2018-04-01T03:24:08.388Z,978.41
2018-04-01T03:25:08.567Z,978.41
2018-04-01T03:26:08.744Z,978.47
2018-04-01T03:27:08.918Z,978.45
2018-04-01T03:28:09.100Z,978.40
2018-04-01T03:29:09.279Z,978.38
2018-04-01T03:30:09.456Z,978.48
2018-04-01T03:31:09.637Z,978.43
2018-04-01T03:32:09.808Z,978.38
2018-04-01T03:33:09.989Z,978.43
2018-04-01T03:34:10.165Z,978.46
2018-04-01T03:35:10.343Z,978.48
2018-04-01T03:36:10.516Z,978.46
2018-04-01T03:37:10.687Z,978.46
2018-04-01T03:38:10.863Z,978.45
2018-04-01T03:39:11.042Z,978.52
2018-04-01T03:40:11.220Z,978.56
2018-04-01T03:41:11.403Z,978.64
2018-04-01T03:42:11.582Z,978.62
2018-04-01T03:43:11.759Z,978.67
2018-04-01T03:44:11.939Z,978.65
2018-04-01T03:45:12.114Z,978.70
2018-04-01T03:46:12.291Z,978.70
2018-04-01T03:47:12.473Z,978.72
2018-04-01T03:48:12.638Z,978.69
2018-04-01T03:49:12.812Z,978.66
2018-04-01T03:50:12.995Z,978.67
2018-04-01T03:51:13.174Z,978.67
2018-04-01T03:52:13.351Z,978.67
2018-04-01T03:53:13.524Z,978.70
2018-04-01T03:54:13.701Z,978.74
2018-04-01T03:55:13.880Z,978.73
2018-04-01T03:56:14.053Z,978.76
2018-04-01T03:57:14.231Z,978.72
2018-04-01T03:58:14.412Z,978.80
2018-04-01T03:59:14.587Z,978.83
2018-04-01T04:00:14.765Z,978.79
2018-04-01T04:01:14.934Z,978.82
2018-04-01T04:02:15.105Z,978.80
2018-04-01T04:03:15.293Z,978.78
2018-04-01T04:04:15.479Z,978.80
2018-04-01T04:05:15.673Z,978.79
2018-04-01T04:06:15.826Z,978.85
2018-04-01T04:07:15.998Z,978.84
2018-04-01T04:08:16.183Z,978.87
2018-04-01T04:09:16.364Z,978.86
2018-04-01T04:10:16.548Z,978.89
2018-04-01T04:11:16.726Z,978.94
2018-04-01T04:12:16.900Z,978.93
2018-04-01T04:13:17.075Z,978.91
2018-04-01T04:14:17.246Z,978.89
2018-04-01T04:15:17.428Z,978.91
2018-04-01T04:16:17.597Z,978.94
2018-04-01T04:17:17.774Z,978.92
2018-04-01T04:18:17.949Z,978.92
2018-04-01T04:19:18.132Z,978.96
2018-04-01T04:20:18.308Z,978.96
2018-04-01T04:21:18.492Z,978.93
2018-04-01T04:22:18.658Z,978.90
2018-04-01T04:23:18.830Z,978.95
2018-04-01T04:24:19.009Z,978.94
2018-04-01T04:25:19.178Z,978.93
2018-04-01T04:26:19.353Z,978.96
2018-04-01T04:27:19.541Z,978.97
2018-04-01T04:28:19.722Z,978.95
2018-04-01T04:29:19.895Z,978.97
2018-04-01T04:30:20.072Z,978.96
2018-04-01T04:31:20.249Z,978.96
2018-04-01T04:32:20.429Z,978.97
2018-04-01T04:33:20.606Z,978.97
2018-04-01T04:34:20.790Z,979.00
2018-04-01T04:35:20.964Z,979.05
2018-04-01T04:36:21.149Z,979.07
2018-04-01T04:37:21.344Z,979.06
2018-04-01T04:38:21.515Z,979.05
2018-04-01T04:39:21.703Z,979.04
2018-04-01T04:40:21.876Z,979.07
2018-04-01T04:41:22.050Z,979.08
2018-04-01T04:42:22.266Z,979.11
2018-04-01T04:43:22.438Z,979.07
2018-04-01T04:44:22.612Z,979.06
2018-04-01T04:45:22.794Z,979.08
2018-04-01T04:46:22.971Z,979.04
2018-04-01T04:47:23.150Z,979.06
2018-04-01T04:48:23.335Z,979.05
2018-04-01T04:49:23.525Z,979.05
2018-04-01T04:50:23.695Z,979.06
2018-04-01T04:51:25.499Z,979.05
2018-04-01T04:52:24.037Z,979.06
2018-04-01T04:53:24.215Z,979.10
2018-04-01T04:54:24.388Z,979.11
2018-04-01T04:55:24.570Z,979.12
2018-04-01T04:56:24.798Z,979.13
2018-04-01T04:57:24.934Z,979.10
2018-04-01T04:58:25.115Z,979.13
2018-04-01T04:59:25.291Z,979.15
2018-04-01T05:00:25.472Z,979.16
2018-04-01T05:01:25.653Z,979.16
2018-04-01T05:02:25.853Z,979.18
2018-04-01T05:03:26.011Z,979.23
2018-04-01T05:04:26.190Z,979.21
2018-04-01T05:05:26.475Z,979.16
2018-04-01T05:06:26.519Z,979.18
2018-04-01T05:07:26.704Z,979.17
2018-04-01T05:08:26.885Z,979.15
2018-04-01T05:09:27.058Z,979.17
2018-04-01T05:10:27.242Z,979.15
2018-04-01T05:11:27.421Z,979.15
2018-04-01T05:12:27.598Z,979.16
2018-04-01T05:13:27.799Z,979.15
2018-04-01T05:14:27.978Z,979.16
2018-04-01T05:15:28.152Z,979.18
2018-04-01T05:16:28.332Z,979.19
2018-04-01T05:17:28.518Z,979.21
2018-04-01T05:18:28.713Z,979.19
2018-04-01T05:19:28.886Z,979.16
2018-04-01T05:20:29.069Z,979.20
2018-04-01T05:21:29.252Z,979.17
2018-04-01T05:22:29.418Z,979.20
2018-04-01T05:23:29.598Z,979.15
2018-04-01T05:24:29.772Z,979.20
2018-04-01T05:25:29.952Z,979.16
2018-04-01T05:26:30.126Z,979.16
2018-04-01T05:27:30.302Z,979.16
2018-04-01T05:28:30.475Z,979.16
2018-04-01T05:29:30.648Z,979.16
2018-04-01T05:30:30.827Z,979.19
2018-04-01T05:31:31.007Z,979.16
2018-04-01T05:32:31.196Z,979.16
2018-04-01T05:33:31.373Z,979.24
2018-04-01T05:34:31.552Z,979.23
2018-04-01T05:35:31.734Z,979.23
2018-04-01T05:36:31.915Z,979.26
2018-04-01T05:37:32.088Z,979.31
2018-04-01T05:38:32.269Z,979.25
2018-04-01T05:39:32.442Z,979.32
2018-04-01T05:40:32.619Z,979.34
2018-04-01T05:41:32.812Z,979.33
2018-04-01T05:42:33.016Z,979.35
2018-04-01T05:43:33.194Z,979.32
2018-04-01T05:44:33.372Z,979.31
2018-04-01T05:45:33.551Z,979.37
2018-04-01T05:46:33.731Z,979.36
2018-04-01T05:47:33.908Z,979.34
2018-04-01T05:48:34.150Z,979.39
2018-04-01T05:49:34.274Z,979.40
2018-04-01T05:50:34.445Z,979.44
2018-04-01T05:51:34.629Z,979.44
2018-04-01T05:52:34.808Z,979.44
2018-04-01T05:53:34.993Z,979.43
2018-04-01T05:54:35.170Z,979.46
2018-04-01T05:55:35.347Z,979.51
2018-04-01T05:56:35.524Z,979.52
2018-04-01T05:57:35.702Z,979.51
2018-04-01T05:58:35.885Z,979.52
2018-04-01T05:59:36.068Z,979.55
2018-04-01T06:00:36.251Z,979.57
2018-04-01T06:01:36.436Z,979.59
2018-04-01T06:02:36.613Z,979.56
2018-04-01T06:03:36.790Z,979.60
2018-04-01T06:04:36.970Z,979.56
2018-04-01T06:05:37.151Z,979.57
2018-04-01T06:06:37.318Z,979.56
2018-04-01T06:07:37.496Z,979.64
2018-04-01T06:08:37.675Z,979.58
2018-04-01T06:09:37.877Z,979.62
2018-04-01T06:10:38.055Z,979.59
2018-04-01T06:11:38.223Z,979.67
2018-04-01T06:12:38.398Z,979.65
2018-04-01T06:13:38.584Z,979.61
2018-04-01T06:14:38.769Z,979.64
2018-04-01T06:15:38.949Z,979.65
2018-04-01T06:16:39.126Z,979.66
2018-04-01T06:17:39.315Z,979.71
2018-04-01T06:18:39.485Z,979.68
2018-04-01T06:19:39.661Z,979.64
2018-04-01T06:20:39.842Z,979.65
2018-04-01T06:21:40.020Z,979.74
2018-04-01T06:22:40.197Z,979.64
2018-04-01T06:23:40.372Z,979.70
2018-04-01T06:24:40.548Z,979.69
2018-04-01T06:25:40.721Z,979.74
2018-04-01T06:26:41.236Z,979.72
2018-04-01T06:27:41.111Z,979.77
2018-04-01T06:28:41.292Z,979.77
2018-04-01T06:29:41.465Z,979.76
2018-04-01T06:30:41.648Z,979.80
2018-04-01T06:31:41.825Z,979.81
2018-04-01T06:32:42.005Z,979.82
2018-04-01T06:33:42.192Z,979.82
2018-04-01T06:34:42.375Z,979.80
2018-04-01T06:35:42.556Z,979.86
2018-04-01T06:36:42.739Z,979.85
2018-04-01T06:37:42.915Z,979.83
2018-04-01T06:38:43.094Z,979.83
2018-04-01T06:39:43.269Z,979.85
2018-04-01T06:40:43.448Z,979.86
2018-04-01T06:41:43.629Z,979.85
2018-04-01T06:42:43.810Z,979.84
2018-04-01T06:43:43.987Z,979.85
2018-04-01T06:44:44.178Z,979.80
2018-04-01T06:45:44.363Z,979.83
2018-04-01T06:46:44.532Z,979.90
2018-04-01T06:47:44.718Z,979.83
2018-04-01T06:48:44.895Z,979.89
2018-04-01T06:49:45.073Z,979.84
2018-04-01T06:50:45.284Z,979.87
2018-04-01T06:51:45.438Z,979.87
2018-04-01T06:52:45.606Z,979.89
2018-04-01T06:53:45.779Z,979.92
2018-04-01T06:54:45.959Z,979.96
2018-04-01T06:55:46.140Z,979.94
2018-04-01T06:56:46.315Z,979.94
2018-04-01T06:57:46.496Z,979.90
2018-04-01T06:58:46.681Z,979.97
2018-04-01T06:59:46.866Z,979.95
2018-04-01T07:00:47.293Z,980.01
2018-04-01T07:01:47.162Z,980.02
2018-04-01T07:02:47.343Z,980.03
2018-04-01T07:03:47.531Z,980.01
2018-04-01T07:04:47.712Z,980.04
2018-04-01T07:05:47.890Z,980.03
2018-04-01T07:06:48.068Z,980.05
2018-04-01T07:07:48.250Z,980.10
2018-04-01T07:08:48.735Z,980.09
2018-04-01T07:09:48.823Z,980.17
2018-04-01T07:10:48.885Z,980.18
2018-04-01T07:11:48.947Z,980.19
2018-04-01T07:12:49.124Z,980.23
2018-04-01T07:13:49.297Z,980.26
2018-04-01T07:14:49.488Z,980.24
2018-04-01T07:15:49.671Z,980.27
2018-04-01T07:16:49.843Z,980.26
2018-04-01T07:17:50.027Z,980.27
2018-04-01T07:18:50.214Z,980.34
2018-04-01T07:19:50.379Z,980.34
2018-04-01T07:20:50.568Z,980.34
2018-04-01T07:21:50.750Z,980.34
2018-04-01T07:22:50.932Z,980.36
2018-04-01T07:23:51.126Z,980.38
2018-04-01T07:24:52.939Z,980.41
2018-04-01T07:25:53.094Z,980.41
2018-04-01T07:26:52.618Z,980.44
2018-04-01T07:27:52.816Z,980.47
2018-04-01T07:28:53.136Z,980.46
2018-04-01T07:29:53.799Z,980.46
2018-04-01T07:30:54.091Z,980.51
2018-04-01T07:31:53.969Z,980.63
2018-04-01T07:32:53.887Z,980.55
2018-04-01T07:33:55.832Z,980.61
2018-04-01T07:34:54.240Z,980.66
2018-04-01T07:35:54.964Z,980.72
2018-04-01T07:36:54.462Z,980.85
2018-04-01T07:37:54.270Z,980.69
2018-04-01T07:38:55.143Z,981.38
2018-04-01T07:39:55.919Z,980.85
2018-04-01T07:40:55.459Z,980.87
2018-04-01T07:41:55.142Z,980.82
2018-04-01T07:42:55.023Z,980.85
2018-04-01T07:43:55.993Z,981.09
2018-04-01T07:44:54.873Z,981.18
2018-04-01T07:45:55.637Z,980.87
2018-04-01T07:46:55.893Z,981.04
2018-04-01T07:47:56.395Z,980.84
2018-04-01T07:48:57.552Z,980.87
2018-04-01T07:49:55.588Z,980.81
2018-04-01T07:50:55.757Z,980.80
2018-04-01T07:51:55.945Z,980.86
2018-04-01T07:52:57.076Z,980.84
2018-04-01T07:53:56.227Z,980.79
2018-04-01T07:54:56.417Z,980.81
2018-04-01T07:55:56.631Z,980.83
2018-04-01T07:56:56.810Z,980.83
2018-04-01T07:57:56.978Z,980.82
2018-04-01T07:58:57.171Z,980.87
2018-04-01T07:59:57.440Z,980.87
2018-04-01T08:00:57.563Z,981.13
2018-04-01T08:01:57.748Z,981.15
2018-04-01T08:02:57.937Z,980.92
2018-04-01T08:03:58.112Z,980.88
2018-04-01T08:04:58.295Z,980.83
2018-04-01T08:05:58.470Z,980.86
2018-04-01T08:06:58.655Z,980.88
2018-04-01T08:07:58.868Z,980.96
2018-04-01T08:08:59.051Z,980.84
2018-04-01T08:09:59.232Z,980.85
2018-04-01T08:10:59.531Z,980.85
2018-04-01T08:11:59.538Z,980.87
2018-04-01T08:12:59.954Z,980.92
2018-04-01T08:13:59.962Z,980.89
2018-04-01T08:15:00.267Z,980.96
2018-04-01T08:16:00.400Z,980.93
2018-04-01T08:17:00.647Z,980.93
2018-04-01T08:18:00.654Z,980.94
2018-04-01T08:19:00.841Z,981.01
2018-04-01T08:20:01.328Z,980.95
2018-04-01T08:21:01.533Z,980.93
2018-04-01T08:22:01.461Z,980.94
2018-04-01T08:23:01.476Z,980.93
2018-04-01T08:24:01.681Z,980.87
2018-04-01T08:25:01.952Z,980.90
2018-04-01T08:26:02.013Z,980.88
2018-04-01T08:27:02.200Z,980.86
2018-04-01T08:28:02.385Z,980.87
2018-04-01T08:29:02.571Z,980.87
2018-04-01T08:30:02.749Z,980.83
2018-04-01T08:31:02.941Z,980.92
2018-04-01T08:32:03.234Z,980.94
2018-04-01T08:33:03.288Z,980.90
2018-04-01T08:34:03.482Z,980.95
2018-04-01T08:35:03.668Z,980.94
2018-04-01T08:36:03.875Z,980.90
2018-04-01T08:37:04.073Z,980.96
2018-04-01T08:38:04.246Z,980.93
2018-04-01T08:39:04.428Z,980.94
2018-04-01T08:40:07.610Z,981.03
2018-04-01T08:41:05.810Z,980.97
2018-04-01T08:42:07.056Z,981.04
2018-04-01T08:43:05.080Z,981.05
2018-04-01T08:44:05.227Z,981.04
2018-04-01T08:45:05.435Z,981.08
2018-04-01T08:46:05.640Z,981.09
2018-04-01T08:47:05.836Z,981.09
2018-04-01T08:48:06.017Z,981.09
2018-04-01T08:49:06.202Z,981.14
2018-04-01T08:50:06.377Z,981.13
2018-04-01T08:51:06.559Z,981.13
2018-04-01T08:52:06.756Z,981.12
2018-04-01T08:53:06.944Z,981.14
2018-04-01T08:54:07.117Z,981.15
2018-04-01T08:55:07.416Z,981.22
2018-04-01T08:56:07.454Z,981.22
2018-04-01T08:57:07.638Z,981.18
2018-04-01T08:58:07.818Z,981.21
2018-04-01T08:59:08.003Z,981.18
2018-04-01T09:00:08.182Z,981.24
2018-04-01T09:01:08.353Z,981.25
2018-04-01T09:02:08.531Z,981.24
2018-04-01T09:03:08.727Z,981.27
2018-04-01T09:04:08.901Z,981.25
2018-04-01T09:05:09.086Z,981.27
2018-04-01T09:06:09.258Z,981.32
2018-04-01T09:07:09.435Z,981.32
2018-04-01T09:08:09.614Z,981.35
2018-04-01T09:09:09.793Z,981.33
2018-04-01T09:10:09.973Z,981.33
2018-04-01T09:11:10.154Z,981.37
2018-04-01T09:12:13.932Z,981.40
2018-04-01T09:13:11.126Z,981.39
2018-04-01T09:14:10.685Z,981.39
2018-04-01T09:15:10.860Z,981.37
2018-04-01T09:16:11.046Z,981.38
2018-04-01T09:17:11.223Z,981.45
2018-04-01T09:18:11.427Z,981.41
2018-04-01T09:19:11.609Z,981.43
2018-04-01T09:20:11.802Z,981.48
2018-04-01T09:21:11.990Z,981.53
2018-04-01T09:22:12.227Z,981.45
2018-04-01T09:23:12.349Z,981.45
2018-04-01T09:24:19.171Z,981.48
2018-04-01T09:25:12.782Z,981.43
2018-04-01T09:26:12.957Z,981.44
2018-04-01T09:27:13.152Z,981.38
2018-04-01T09:28:16.219Z,981.37
2018-04-01T09:29:16.292Z,981.42
2018-04-01T09:30:15.772Z,981.42
2018-04-01T09:31:19.305Z,981.44
2018-04-01T09:32:15.583Z,981.41
2018-04-01T09:33:16.251Z,981.43
2018-04-01T09:34:16.425Z,981.44
2018-04-01T09:35:16.387Z,981.45
2018-04-01T09:36:16.027Z,981.40
2018-04-01T09:37:18.935Z,981.43
2018-04-01T09:38:15.884Z,981.40
2018-04-01T09:39:16.143Z,981.43
2018-04-01T09:40:16.910Z,981.38
2018-04-01T09:41:18.388Z,981.37
2018-04-01T09:42:17.494Z,981.41
2018-04-01T09:43:19.200Z,981.43
2018-04-01T09:44:16.818Z,981.52
2018-04-01T09:45:16.207Z,981.67
2018-04-01T09:46:16.024Z,981.66
2018-04-01T09:47:16.199Z,981.63
2018-04-01T09:48:16.388Z,981.60
2018-04-01T09:49:16.593Z,981.53
2018-04-01T09:50:16.809Z,981.58
2018-04-01T09:51:16.954Z,981.57
2018-04-01T09:52:17.136Z,981.55
2018-04-01T09:53:17.323Z,981.48
2018-04-01T09:54:17.507Z,981.48
2018-04-01T09:55:17.697Z,981.50
2018-04-01T09:56:17.881Z,981.47
2018-04-01T09:57:18.058Z,981.57
2018-04-01T09:58:21.964Z,981.61
2018-04-01T09:59:18.406Z,981.56
2018-04-01T10:00:18.591Z,981.58
2018-04-01T10:01:18.776Z,981.61
2018-04-01T10:02:18.952Z,981.61
2018-04-01T10:03:19.134Z,981.60
2018-04-01T10:04:19.316Z,981.58
2018-04-01T10:05:19.497Z,981.66
2018-04-01T10:06:19.676Z,981.62
2018-04-01T10:07:19.857Z,981.64
2018-04-01T10:08:20.041Z,981.67
2018-04-01T10:09:20.214Z,981.68
2018-04-01T10:10:20.397Z,981.69
2018-04-01T10:11:20.572Z,981.69
2018-04-01T10:12:20.751Z,981.71
2018-04-01T10:13:20.930Z,981.75
2018-04-01T10:14:21.107Z,981.72
2018-04-01T10:15:21.277Z,981.73
2018-04-01T10:16:21.450Z,981.71
2018-04-01T10:17:21.624Z,981.66
2018-04-01T10:18:21.805Z,981.69
2018-04-01T10:19:21.994Z,981.66
2018-04-01T10:20:22.167Z,981.69
2018-04-01T10:21:22.346Z,981.66
2018-04-01T10:22:22.522Z,981.69
2018-04-01T10:23:22.705Z,981.67
2018-04-01T10:24:22.875Z,981.72
2018-04-01T10:25:23.053Z,981.74
2018-04-01T10:26:23.229Z,981.70
2018-04-01T10:27:23.412Z,981.71
2018-04-01T10:28:23.596Z,981.77
2018-04-01T10:29:23.833Z,981.78
2018-04-01T10:30:23.953Z,981.78
2018-04-01T10:31:24.131Z,981.80
2018-04-01T10:32:24.308Z,981.82
2018-04-01T10:33:24.490Z,981.83
2018-04-01T10:34:24.668Z,981.84
2018-04-01T10:35:24.840Z,981.86
2018-04-01T10:36:25.015Z,981.90
2018-04-01T10:37:25.198Z,981.88
2018-04-01T10:38:25.383Z,981.88
2018-04-01T10:39:25.564Z,981.92
2018-04-01T10:40:29.166Z,981.97
2018-04-01T10:41:28.797Z,981.95
2018-04-01T10:42:28.898Z,982.02
2018-04-01T10:43:30.636Z,982.02
2018-04-01T10:44:26.462Z,982.05
2018-04-01T10:45:31.391Z,982.11
2018-04-01T10:46:31.515Z,982.10
2018-04-01T10:47:30.006Z,982.17
2018-04-01T10:48:30.141Z,982.18
2018-04-01T10:49:31.354Z,982.17
2018-04-01T10:50:27.383Z,982.18
2018-04-01T10:51:30.834Z,982.27
2018-04-01T10:52:30.169Z,982.16
2018-04-01T10:53:28.085Z,982.21
2018-04-01T10:54:29.874Z,982.17
2018-04-01T10:55:30.115Z,982.20
2018-04-01T10:56:30.127Z,982.21
2018-04-01T10:57:32.948Z,982.23
2018-04-01T10:58:32.029Z,982.22
2018-04-01T10:59:28.823Z,982.26
2018-04-01T11:00:28.997Z,982.24
2018-04-01T11:01:29.177Z,982.22
2018-04-01T11:02:29.362Z,982.20
2018-04-01T11:03:29.545Z,982.21
2018-04-01T11:04:29.740Z,982.24
2018-04-01T11:05:29.930Z,982.24
2018-04-01T11:06:30.106Z,982.27
2018-04-01T11:07:30.302Z,982.25
2018-04-01T11:08:30.505Z,982.26
2018-04-01T11:09:30.694Z,982.29
2018-04-01T11:10:30.874Z,982.31
2018-04-01T11:11:31.081Z,982.29
2018-04-01T11:12:31.278Z,982.29
2018-04-01T11:13:31.461Z,982.29
2018-04-01T11:14:31.641Z,982.29
2018-04-01T11:15:32.169Z,982.28
2018-04-01T11:16:31.965Z,982.31
2018-04-01T11:17:32.149Z,982.30
2018-04-01T11:18:32.332Z,982.30
2018-04-01T11:19:35.864Z,982.35
2018-04-01T11:20:32.739Z,982.28
2018-04-01T11:21:35.694Z,982.29
2018-04-01T11:22:34.472Z,982.32
2018-04-01T11:23:33.631Z,982.30
2018-04-01T11:24:34.521Z,982.32
2018-04-01T11:25:36.572Z,982.36
2018-04-01T11:26:35.470Z,982.36
2018-04-01T11:27:34.709Z,982.38
2018-04-01T11:28:35.313Z,982.42
2018-04-01T11:29:34.964Z,982.44
2018-04-01T11:30:38.839Z,982.49
2018-04-01T11:31:36.732Z,982.57
2018-04-01T11:32:38.079Z,982.53
2018-04-01T11:33:35.566Z,982.52
2018-04-01T11:34:39.267Z,982.52
2018-04-01T11:35:36.041Z,982.52
2018-04-01T11:36:36.600Z,982.50
2018-04-01T11:37:38.136Z,982.50
2018-04-01T11:38:36.521Z,982.49
2018-04-01T11:39:37.479Z,982.53
2018-04-01T11:40:35.944Z,982.54
2018-04-01T11:41:37.171Z,982.50
2018-04-01T11:42:36.335Z,982.56
2018-04-01T11:43:36.532Z,982.57
2018-04-01T11:44:36.699Z,982.60
2018-04-01T11:45:36.878Z,982.57
2018-04-01T11:46:37.061Z,982.58
2018-04-01T11:47:37.702Z,982.61
2018-04-01T11:48:37.445Z,982.57
2018-04-01T11:49:37.625Z,982.59
2018-04-01T11:50:37.818Z,982.61
2018-04-01T11:51:37.997Z,982.60
2018-04-01T11:52:38.237Z,982.64
2018-04-01T11:53:38.296Z,982.62
2018-04-01T11:54:38.629Z,982.60
2018-04-01T11:55:38.750Z,982.60
2018-04-01T11:56:38.844Z,982.55
2018-04-01T11:57:38.993Z,982.62
2018-04-01T11:58:39.231Z,982.65
2018-04-01T11:59:39.292Z,982.62
2018-04-01T12:00:39.472Z,982.67
2018-04-01T12:01:41.616Z,982.68
2018-04-01T12:02:41.081Z,982.70
2018-04-01T12:03:42.568Z,982.67
2018-04-01T12:04:40.714Z,982.66
2018-04-01T12:05:40.257Z,982.76
2018-04-01T12:06:40.444Z,982.77
2018-04-01T12:07:40.644Z,982.77
2018-04-01T12:08:40.826Z,982.77
2018-04-01T12:09:42.286Z,982.73
2018-04-01T12:10:42.491Z,982.81
2018-04-01T12:11:41.339Z,982.75
2018-04-01T12:12:41.523Z,982.70
2018-04-01T12:13:41.862Z,982.80
2018-04-01T12:14:41.921Z,982.75
2018-04-01T12:15:42.106Z,982.75
2018-04-01T12:16:42.690Z,982.77
2018-04-01T12:17:42.491Z,982.74
2018-04-01T12:18:42.790Z,982.71
2018-04-01T12:19:43.226Z,982.78
2018-04-01T12:20:42.954Z,982.79
2018-04-01T12:21:43.640Z,982.80
2018-04-01T12:22:43.420Z,982.81
2018-04-01T12:23:43.602Z,982.78
2018-04-01T12:24:43.804Z,982.80
2018-04-01T12:25:43.856Z,982.85
2018-04-01T12:26:44.603Z,982.84
2018-04-01T12:27:44.168Z,982.86
2018-04-01T12:28:44.779Z,982.86
2018-04-01T12:29:44.465Z,982.91
2018-04-01T12:30:44.715Z,982.87